sensor_id;sensor_type;location;lat;lon;timestamp;temperature;humidity
8420;DHT22;4247;48.550;8.822;2022-07-06T00:01:48;17.50;92.20
8420;DHT22;4247;48.550;8.822;2022-07-06T00:04:16;17.50;92.40
8420;DHT22;4247;48.550;8.822;2022-07-06T00:06:43;17.40;92.30
8420;DHT22;4247;48.550;8.822;2022-07-06T00:09:11;17.40;92.40
8420;DHT22;4247;48.550;8.822;2022-07-06T00:11:38;17.40;92.50
8420;DHT22;4247;48.550;8.822;2022-07-06T00:14:08;17.40;92.70
8420;DHT22;4247;48.550;8.822;2022-07-06T00:16:35;17.30;92.70
8420;DHT22;4247;48.550;8.822;2022-07-06T00:19:02;17.30;92.60
8420;DHT22;4247;48.550;8.822;2022-07-06T00:21:29;17.30;92.70
8420;DHT22;4247;48.550;8.822;2022-07-06T00:23:56;17.30;92.60
8420;DHT22;4247;48.550;8.822;2022-07-06T00:26:25;17.30;92.80
8420;DHT22;4247;48.550;8.822;2022-07-06T00:28:51;17.20;92.70
8420;DHT22;4247;48.550;8.822;2022-07-06T00:31:18;17.20;92.70
8420;DHT22;4247;48.550;8.822;2022-07-06T00:33:45;17.20;92.60
8420;DHT22;4247;48.550;8.822;2022-07-06T00:36:13;17.20;92.70
8420;DHT22;4247;48.550;8.822;2022-07-06T00:38:40;17.20;92.90
8420;DHT22;4247;48.550;8.822;2022-07-06T00:41:07;17.20;92.90
8420;DHT22;4247;48.550;8.822;2022-07-06T00:44:00;17.10;92.80
8420;DHT22;4247;48.550;8.822;2022-07-06T00:46:31;17.10;92.90
8420;DHT22;4247;48.550;8.822;2022-07-06T00:48:59;17.10;92.80
8420;DHT22;4247;48.550;8.822;2022-07-06T00:51:28;17.10;92.90
8420;DHT22;4247;48.550;8.822;2022-07-06T00:53:58;17.10;93.10
8420;DHT22;4247;48.550;8.822;2022-07-06T00:56:25;17.00;93.10
8420;DHT22;4247;48.550;8.822;2022-07-06T00:58:54;17.00;93.20
8420;DHT22;4247;48.550;8.822;2022-07-06T01:01:21;17.00;93.10
8420;DHT22;4247;48.550;8.822;2022-07-06T01:03:48;16.90;93.10
8420;DHT22;4247;48.550;8.822;2022-07-06T01:06:15;16.90;93.30
8420;DHT22;4247;48.550;8.822;2022-07-06T01:08:46;16.90;93.40
8420;DHT22;4247;48.550;8.822;2022-07-06T01:11:13;16.80;93.50
8420;DHT22;4247;48.550;8.822;2022-07-06T01:13:40;16.80;93.60
8420;DHT22;4247;48.550;8.822;2022-07-06T01:16:09;16.80;93.70
8420;DHT22;4247;48.550;8.822;2022-07-06T01:18:37;16.80;93.70
8420;DHT22;4247;48.550;8.822;2022-07-06T01:21:11;16.70;93.70
8420;DHT22;4247;48.550;8.822;2022-07-06T01:23:40;16.70;93.50
8420;DHT22;4247;48.550;8.822;2022-07-06T01:26:09;16.60;93.60
8420;DHT22;4247;48.550;8.822;2022-07-06T01:28:36;16.60;93.70
8420;DHT22;4247;48.550;8.822;2022-07-06T01:31:03;16.60;93.60
8420;DHT22;4247;48.550;8.822;2022-07-06T01:33:32;16.60;93.50
8420;DHT22;4247;48.550;8.822;2022-07-06T01:35:59;16.50;93.60
8420;DHT22;4247;48.550;8.822;2022-07-06T01:38:28;16.50;93.40
8420;DHT22;4247;48.550;8.822;2022-07-06T01:40:54;16.50;93.40
8420;DHT22;4247;48.550;8.822;2022-07-06T01:43:21;16.50;93.30
8420;DHT22;4247;48.550;8.822;2022-07-06T01:45:48;16.50;93.30
8420;DHT22;4247;48.550;8.822;2022-07-06T01:48:15;16.50;93.40
8420;DHT22;4247;48.550;8.822;2022-07-06T01:50:42;16.50;93.30
8420;DHT22;4247;48.550;8.822;2022-07-06T01:53:15;16.50;93.10
8420;DHT22;4247;48.550;8.822;2022-07-06T01:55:44;16.50;92.80
8420;DHT22;4247;48.550;8.822;2022-07-06T01:58:11;16.50;92.90
8420;DHT22;4247;48.550;8.822;2022-07-06T02:00:37;16.50;93.10
8420;DHT22;4247;48.550;8.822;2022-07-06T02:03:04;16.50;93.70
8420;DHT22;4247;48.550;8.822;2022-07-06T02:05:33;16.50;93.90
8420;DHT22;4247;48.550;8.822;2022-07-06T02:08:00;16.40;93.70
8420;DHT22;4247;48.550;8.822;2022-07-06T02:10:26;16.40;94.20
8420;DHT22;4247;48.550;8.822;2022-07-06T02:12:55;16.30;94.20
8420;DHT22;4247;48.550;8.822;2022-07-06T02:15:22;16.30;94.00
8420;DHT22;4247;48.550;8.822;2022-07-06T02:17:48;16.30;94.20
8420;DHT22;4247;48.550;8.822;2022-07-06T02:20:15;16.20;94.60
8420;DHT22;4247;48.550;8.822;2022-07-06T02:22:42;16.20;94.10
8420;DHT22;4247;48.550;8.822;2022-07-06T02:25:09;16.10;94.60
8420;DHT22;4247;48.550;8.822;2022-07-06T02:27:36;16.10;95.10
8420;DHT22;4247;48.550;8.822;2022-07-06T02:30:06;16.00;95.00
8420;DHT22;4247;48.550;8.822;2022-07-06T02:32:33;16.00;95.00
8420;DHT22;4247;48.550;8.822;2022-07-06T02:35:00;15.90;95.30
8420;DHT22;4247;48.550;8.822;2022-07-06T02:37:27;15.90;95.00
8420;DHT22;4247;48.550;8.822;2022-07-06T02:39:54;15.90;95.30
8420;DHT22;4247;48.550;8.822;2022-07-06T02:42:21;15.90;95.60
8420;DHT22;4247;48.550;8.822;2022-07-06T02:44:47;15.80;95.70
8420;DHT22;4247;48.550;8.822;2022-07-06T02:47:16;15.80;96.00
8420;DHT22;4247;48.550;8.822;2022-07-06T02:49:42;15.70;96.10
8420;DHT22;4247;48.550;8.822;2022-07-06T02:52:09;15.70;96.40
8420;DHT22;4247;48.550;8.822;2022-07-06T02:54:36;15.60;96.70
8420;DHT22;4247;48.550;8.822;2022-07-06T02:57:03;15.60;96.80
8420;DHT22;4247;48.550;8.822;2022-07-06T02:59:30;15.60;97.10
8420;DHT22;4247;48.550;8.822;2022-07-06T03:01:57;15.60;97.10
8420;DHT22;4247;48.550;8.822;2022-07-06T03:04:25;15.60;97.20
8420;DHT22;4247;48.550;8.822;2022-07-06T03:06:53;15.60;97.30
8420;DHT22;4247;48.550;8.822;2022-07-06T03:09:20;15.60;97.50
8420;DHT22;4247;48.550;8.822;2022-07-06T03:11:47;15.60;97.50
8420;DHT22;4247;48.550;8.822;2022-07-06T03:14:14;15.60;97.70
8420;DHT22;4247;48.550;8.822;2022-07-06T03:16:40;15.60;97.80
8420;DHT22;4247;48.550;8.822;2022-07-06T03:19:08;15.60;98.00
8420;DHT22;4247;48.550;8.822;2022-07-06T03:21:37;15.60;98.20
8420;DHT22;4247;48.550;8.822;2022-07-06T03:24:04;15.50;98.40
8420;DHT22;4247;48.550;8.822;2022-07-06T03:26:31;15.50;98.40
8420;DHT22;4247;48.550;8.822;2022-07-06T03:28:58;15.50;98.60
8420;DHT22;4247;48.550;8.822;2022-07-06T03:31:25;15.50;98.60
8420;DHT22;4247;48.550;8.822;2022-07-06T03:33:52;15.50;98.60
8420;DHT22;4247;48.550;8.822;2022-07-06T03:36:19;15.50;98.80
8420;DHT22;4247;48.550;8.822;2022-07-06T03:38:47;15.50;98.80
8420;DHT22;4247;48.550;8.822;2022-07-06T03:41:14;15.50;98.90
8420;DHT22;4247;48.550;8.822;2022-07-06T03:43:41;15.60;99.20
8420;DHT22;4247;48.550;8.822;2022-07-06T03:46:08;15.60;99.10
8420;DHT22;4247;48.550;8.822;2022-07-06T03:48:35;15.60;99.40
8420;DHT22;4247;48.550;8.822;2022-07-06T03:51:03;15.60;99.50
8420;DHT22;4247;48.550;8.822;2022-07-06T03:53:31;15.60;99.20
8420;DHT22;4247;48.550;8.822;2022-07-06T03:56:00;15.70;99.40
8420;DHT22;4247;48.550;8.822;2022-07-06T03:58:44;15.70;99.40
8420;DHT22;4247;48.550;8.822;2022-07-06T04:01:13;15.70;99.40
8420;DHT22;4247;48.550;8.822;2022-07-06T04:03:40;15.70;99.60
8420;DHT22;4247;48.550;8.822;2022-07-06T04:06:07;15.70;99.70
8420;DHT22;4247;48.550;8.822;2022-07-06T04:08:34;15.70;99.50
8420;DHT22;4247;48.550;8.822;2022-07-06T04:11:03;15.70;99.90
8420;DHT22;4247;48.550;8.822;2022-07-06T04:13:30;15.80;99.80
8420;DHT22;4247;48.550;8.822;2022-07-06T04:15:57;15.80;99.60
8420;DHT22;4247;48.550;8.822;2022-07-06T04:18:24;15.80;99.80
8420;DHT22;4247;48.550;8.822;2022-07-06T04:20:51;15.80;99.80
8420;DHT22;4247;48.550;8.822;2022-07-06T04:23:18;15.80;99.80
8420;DHT22;4247;48.550;8.822;2022-07-06T04:25:45;15.90;99.60
8420;DHT22;4247;48.550;8.822;2022-07-06T04:28:13;15.90;99.30
8420;DHT22;4247;48.550;8.822;2022-07-06T04:30:40;15.90;99.40
8420;DHT22;4247;48.550;8.822;2022-07-06T04:33:08;16.10;99.30
8420;DHT22;4247;48.550;8.822;2022-07-06T04:35:36;16.20;99.20
8420;DHT22;4247;48.550;8.822;2022-07-06T04:38:03;16.50;99.00
8420;DHT22;4247;48.550;8.822;2022-07-06T04:40:30;17.00;98.20
8420;DHT22;4247;48.550;8.822;2022-07-06T04:42:57;17.60;97.40
8420;DHT22;4247;48.550;8.822;2022-07-06T04:45:26;18.10;96.40
8420;DHT22;4247;48.550;8.822;2022-07-06T04:47:53;18.60;95.90
8420;DHT22;4247;48.550;8.822;2022-07-06T04:50:20;19.20;95.20
8420;DHT22;4247;48.550;8.822;2022-07-06T04:52:48;19.60;94.60
8420;DHT22;4247;48.550;8.822;2022-07-06T04:55:15;19.30;94.80
8420;DHT22;4247;48.550;8.822;2022-07-06T04:57:41;19.20;94.40
8420;DHT22;4247;48.550;8.822;2022-07-06T05:00:09;19.00;94.50
8420;DHT22;4247;48.550;8.822;2022-07-06T05:02:38;18.80;94.40
8420;DHT22;4247;48.550;8.822;2022-07-06T05:05:05;18.50;94.80
8420;DHT22;4247;48.550;8.822;2022-07-06T05:07:35;18.30;95.20
8420;DHT22;4247;48.550;8.822;2022-07-06T05:10:06;18.20;95.40
8420;DHT22;4247;48.550;8.822;2022-07-06T05:12:33;18.10;95.50
8420;DHT22;4247;48.550;8.822;2022-07-06T05:15:01;18.00;95.70
8420;DHT22;4247;48.550;8.822;2022-07-06T05:17:28;17.90;96.20
8420;DHT22;4247;48.550;8.822;2022-07-06T05:19:57;17.80;95.90
8420;DHT22;4247;48.550;8.822;2022-07-06T05:22:24;17.60;96.50
8420;DHT22;4247;48.550;8.822;2022-07-06T05:24:51;17.60;96.50
8420;DHT22;4247;48.550;8.822;2022-07-06T05:27:17;17.60;96.30
8420;DHT22;4247;48.550;8.822;2022-07-06T05:29:45;17.60;96.90
8420;DHT22;4247;48.550;8.822;2022-07-06T05:32:11;17.50;96.90
8420;DHT22;4247;48.550;8.822;2022-07-06T05:34:38;17.60;97.00
8420;DHT22;4247;48.550;8.822;2022-07-06T05:37:07;17.60;97.30
8420;DHT22;4247;48.550;8.822;2022-07-06T05:39:34;17.70;96.80
8420;DHT22;4247;48.550;8.822;2022-07-06T05:42:00;17.80;96.90
8420;DHT22;4247;48.550;8.822;2022-07-06T05:44:27;17.90;96.70
8420;DHT22;4247;48.550;8.822;2022-07-06T05:46:54;18.00;97.00
8420;DHT22;4247;48.550;8.822;2022-07-06T05:49:41;18.00;96.50
8420;DHT22;4247;48.550;8.822;2022-07-06T05:52:27;18.00;96.70
8420;DHT22;4247;48.550;8.822;2022-07-06T05:54:53;18.10;96.50
8420;DHT22;4247;48.550;8.822;2022-07-06T05:57:20;18.10;96.50
8420;DHT22;4247;48.550;8.822;2022-07-06T05:59:47;18.10;96.40
8420;DHT22;4247;48.550;8.822;2022-07-06T06:02:14;18.20;96.10
8420;DHT22;4247;48.550;8.822;2022-07-06T06:04:42;18.20;96.30
8420;DHT22;4247;48.550;8.822;2022-07-06T06:07:09;18.30;96.20
8420;DHT22;4247;48.550;8.822;2022-07-06T06:09:37;18.30;96.00
8420;DHT22;4247;48.550;8.822;2022-07-06T06:12:04;18.40;95.90
8420;DHT22;4247;48.550;8.822;2022-07-06T06:14:31;18.50;95.80
8420;DHT22;4247;48.550;8.822;2022-07-06T06:16:59;18.60;95.90
8420;DHT22;4247;48.550;8.822;2022-07-06T06:19:26;18.60;95.50
8420;DHT22;4247;48.550;8.822;2022-07-06T06:21:53;18.80;95.60
8420;DHT22;4247;48.550;8.822;2022-07-06T06:24:20;18.90;95.70
8420;DHT22;4247;48.550;8.822;2022-07-06T06:26:50;18.90;95.30
8420;DHT22;4247;48.550;8.822;2022-07-06T06:29:19;18.90;95.10
8420;DHT22;4247;48.550;8.822;2022-07-06T06:31:45;19.00;95.60
8420;DHT22;4247;48.550;8.822;2022-07-06T06:34:12;19.00;95.30
8420;DHT22;4247;48.550;8.822;2022-07-06T06:36:39;19.10;95.20
8420;DHT22;4247;48.550;8.822;2022-07-06T06:39:06;19.20;94.70
8420;DHT22;4247;48.550;8.822;2022-07-06T06:41:38;19.10;94.10
8420;DHT22;4247;48.550;8.822;2022-07-06T06:44:07;19.20;94.30
8420;DHT22;4247;48.550;8.822;2022-07-06T06:46:33;19.20;94.20
8420;DHT22;4247;48.550;8.822;2022-07-06T06:49:00;19.30;94.40
8420;DHT22;4247;48.550;8.822;2022-07-06T06:51:27;19.30;94.40
8420;DHT22;4247;48.550;8.822;2022-07-06T06:53:54;19.30;94.40
8420;DHT22;4247;48.550;8.822;2022-07-06T06:56:21;19.40;94.40
8420;DHT22;4247;48.550;8.822;2022-07-06T06:58:48;19.40;93.90
8420;DHT22;4247;48.550;8.822;2022-07-06T07:01:16;19.50;94.00
8420;DHT22;4247;48.550;8.822;2022-07-06T07:03:43;19.60;94.10
8420;DHT22;4247;48.550;8.822;2022-07-06T07:06:10;19.60;93.80
8420;DHT22;4247;48.550;8.822;2022-07-06T07:08:37;19.60;93.60
8420;DHT22;4247;48.550;8.822;2022-07-06T07:11:04;19.60;93.90
8420;DHT22;4247;48.550;8.822;2022-07-06T07:13:31;19.60;93.90
8420;DHT22;4247;48.550;8.822;2022-07-06T07:15:58;19.60;93.80
8420;DHT22;4247;48.550;8.822;2022-07-06T07:18:26;19.70;94.30
8420;DHT22;4247;48.550;8.822;2022-07-06T07:20:53;19.70;93.50
8420;DHT22;4247;48.550;8.822;2022-07-06T07:23:26;19.70;93.80
8420;DHT22;4247;48.550;8.822;2022-07-06T07:25:53;19.90;94.10
8420;DHT22;4247;48.550;8.822;2022-07-06T07:28:20;19.90;93.40
8420;DHT22;4247;48.550;8.822;2022-07-06T07:30:47;20.00;93.20
8420;DHT22;4247;48.550;8.822;2022-07-06T07:33:14;20.20;93.40
8420;DHT22;4247;48.550;8.822;2022-07-06T07:35:42;20.20;93.00
8420;DHT22;4247;48.550;8.822;2022-07-06T07:38:09;20.40;93.20
8420;DHT22;4247;48.550;8.822;2022-07-06T07:40:36;20.60;93.10
8420;DHT22;4247;48.550;8.822;2022-07-06T07:43:02;20.80;93.10
8420;DHT22;4247;48.550;8.822;2022-07-06T07:45:31;21.00;92.60
8420;DHT22;4247;48.550;8.822;2022-07-06T07:47:57;21.30;91.90
8420;DHT22;4247;48.550;8.822;2022-07-06T07:50:24;21.70;90.90
8420;DHT22;4247;48.550;8.822;2022-07-06T07:52:53;21.80;90.80
8420;DHT22;4247;48.550;8.822;2022-07-06T07:55:20;22.10;90.60
8420;DHT22;4247;48.550;8.822;2022-07-06T07:57:47;22.40;90.20
8420;DHT22;4247;48.550;8.822;2022-07-06T08:00:14;22.70;90.50
8420;DHT22;4247;48.550;8.822;2022-07-06T08:02:41;22.80;87.30
8420;DHT22;4247;48.550;8.822;2022-07-06T08:05:08;22.90;90.00
8420;DHT22;4247;48.550;8.822;2022-07-06T08:07:38;23.20;87.00
8420;DHT22;4247;48.550;8.822;2022-07-06T08:10:07;23.40;89.00
8420;DHT22;4247;48.550;8.822;2022-07-06T08:12:35;23.60;87.00
8420;DHT22;4247;48.550;8.822;2022-07-06T08:15:03;23.60;85.40
8420;DHT22;4247;48.550;8.822;2022-07-06T08:17:29;23.70;88.60
8420;DHT22;4247;48.550;8.822;2022-07-06T08:19:57;23.70;85.20
8420;DHT22;4247;48.550;8.822;2022-07-06T08:22:24;23.70;83.90
8420;DHT22;4247;48.550;8.822;2022-07-06T08:24:52;23.70;86.40
8420;DHT22;4247;48.550;8.822;2022-07-06T08:27:21;23.50;85.90
8420;DHT22;4247;48.550;8.822;2022-07-06T08:29:47;23.30;84.90
8420;DHT22;4247;48.550;8.822;2022-07-06T08:32:14;23.00;83.70
8420;DHT22;4247;48.550;8.822;2022-07-06T08:34:41;22.90;85.20
8420;DHT22;4247;48.550;8.822;2022-07-06T08:37:09;22.90;83.90
8420;DHT22;4247;48.550;8.822;2022-07-06T08:39:36;22.70;85.20
8420;DHT22;4247;48.550;8.822;2022-07-06T08:42:04;22.90;86.10
8420;DHT22;4247;48.550;8.822;2022-07-06T08:44:33;22.90;87.20
8420;DHT22;4247;48.550;8.822;2022-07-06T08:47:05;23.00;85.10
8420;DHT22;4247;48.550;8.822;2022-07-06T08:49:32;22.90;86.10
8420;DHT22;4247;48.550;8.822;2022-07-06T08:52:00;22.80;87.10
8420;DHT22;4247;48.550;8.822;2022-07-06T08:54:28;22.80;85.80
8420;DHT22;4247;48.550;8.822;2022-07-06T08:56:57;22.80;86.00
8420;DHT22;4247;48.550;8.822;2022-07-06T08:59:25;22.90;85.60
8420;DHT22;4247;48.550;8.822;2022-07-06T09:01:55;22.80;87.00
8420;DHT22;4247;48.550;8.822;2022-07-06T09:04:22;23.00;88.00
8420;DHT22;4247;48.550;8.822;2022-07-06T09:06:49;23.20;87.90
8420;DHT22;4247;48.550;8.822;2022-07-06T09:09:20;23.10;86.10
8420;DHT22;4247;48.550;8.822;2022-07-06T09:11:47;22.90;85.20
8420;DHT22;4247;48.550;8.822;2022-07-06T09:14:14;23.00;86.50
8420;DHT22;4247;48.550;8.822;2022-07-06T09:16:41;23.00;85.60
8420;DHT22;4247;48.550;8.822;2022-07-06T09:19:16;23.00;85.30
8420;DHT22;4247;48.550;8.822;2022-07-06T09:21:43;23.20;86.60
8420;DHT22;4247;48.550;8.822;2022-07-06T09:24:12;23.20;85.50
8420;DHT22;4247;48.550;8.822;2022-07-06T09:26:39;23.20;84.70
8420;DHT22;4247;48.550;8.822;2022-07-06T09:29:07;23.40;85.70
8420;DHT22;4247;48.550;8.822;2022-07-06T09:31:35;23.40;84.70
8420;DHT22;4247;48.550;8.822;2022-07-06T09:34:03;23.40;84.10
8420;DHT22;4247;48.550;8.822;2022-07-06T09:36:44;23.50;85.40
8420;DHT22;4247;48.550;8.822;2022-07-06T09:39:23;23.60;84.70
8420;DHT22;4247;48.550;8.822;2022-07-06T09:41:57;23.60;83.50
8420;DHT22;4247;48.550;8.822;2022-07-06T09:44:26;23.50;84.30
8420;DHT22;4247;48.550;8.822;2022-07-06T09:46:55;23.50;82.90
8420;DHT22;4247;48.550;8.822;2022-07-06T09:49:23;23.60;84.80
8420;DHT22;4247;48.550;8.822;2022-07-06T09:51:53;23.70;83.50
8420;DHT22;4247;48.550;8.822;2022-07-06T09:54:21;23.70;84.30
8420;DHT22;4247;48.550;8.822;2022-07-06T09:56:50;23.80;84.30
8420;DHT22;4247;48.550;8.822;2022-07-06T09:59:18;23.70;82.90
8420;DHT22;4247;48.550;8.822;2022-07-06T10:01:47;23.40;84.20
8420;DHT22;4247;48.550;8.822;2022-07-06T10:04:15;23.40;85.30
8420;DHT22;4247;48.550;8.822;2022-07-06T10:06:44;23.50;85.50
8420;DHT22;4247;48.550;8.822;2022-07-06T10:09:14;23.60;84.30
8420;DHT22;4247;48.550;8.822;2022-07-06T10:11:43;23.40;83.70
8420;DHT22;4247;48.550;8.822;2022-07-06T10:14:12;23.50;83.60
8420;DHT22;4247;48.550;8.822;2022-07-06T10:16:41;23.40;85.00
8420;DHT22;4247;48.550;8.822;2022-07-06T10:19:09;23.40;84.60
8420;DHT22;4247;48.550;8.822;2022-07-06T10:21:37;23.40;84.20
8420;DHT22;4247;48.550;8.822;2022-07-06T10:24:05;23.40;84.30
8420;DHT22;4247;48.550;8.822;2022-07-06T10:26:34;23.40;82.40
8420;DHT22;4247;48.550;8.822;2022-07-06T10:29:02;23.50;84.10
8420;DHT22;4247;48.550;8.822;2022-07-06T10:31:31;23.50;83.70
8420;DHT22;4247;48.550;8.822;2022-07-06T10:34:00;23.60;84.70
8420;DHT22;4247;48.550;8.822;2022-07-06T10:36:28;23.60;83.90
8420;DHT22;4247;48.550;8.822;2022-07-06T10:38:55;23.50;82.00
8420;DHT22;4247;48.550;8.822;2022-07-06T10:41:34;23.50;84.60
8420;DHT22;4247;48.550;8.822;2022-07-06T10:44:22;23.50;84.10
8420;DHT22;4247;48.550;8.822;2022-07-06T10:46:53;23.50;84.10
8420;DHT22;4247;48.550;8.822;2022-07-06T10:49:21;23.30;84.60
8420;DHT22;4247;48.550;8.822;2022-07-06T10:51:49;23.20;85.10
8420;DHT22;4247;48.550;8.822;2022-07-06T10:54:18;23.20;85.30
8420;DHT22;4247;48.550;8.822;2022-07-06T10:56:48;23.00;84.80
8420;DHT22;4247;48.550;8.822;2022-07-06T10:59:17;22.90;86.20
8420;DHT22;4247;48.550;8.822;2022-07-06T11:02:11;22.80;87.80
8420;DHT22;4247;48.550;8.822;2022-07-06T11:04:47;22.70;88.60
8420;DHT22;4247;48.550;8.822;2022-07-06T11:07:15;22.60;89.30
8420;DHT22;4247;48.550;8.822;2022-07-06T11:09:53;22.50;88.80
8420;DHT22;4247;48.550;8.822;2022-07-06T11:12:22;22.40;89.10
8420;DHT22;4247;48.550;8.822;2022-07-06T11:14:52;22.30;88.90
8420;DHT22;4247;48.550;8.822;2022-07-06T11:17:20;22.30;89.10
8420;DHT22;4247;48.550;8.822;2022-07-06T11:19:49;22.50;89.70
8420;DHT22;4247;48.550;8.822;2022-07-06T11:22:17;22.50;90.00
8420;DHT22;4247;48.550;8.822;2022-07-06T11:24:46;22.70;90.10
8420;DHT22;4247;48.550;8.822;2022-07-06T11:27:13;22.80;89.00
8420;DHT22;4247;48.550;8.822;2022-07-06T11:29:41;23.00;89.40
8420;DHT22;4247;48.550;8.822;2022-07-06T11:32:11;23.10;88.10
8420;DHT22;4247;48.550;8.822;2022-07-06T11:34:42;23.10;88.80
8420;DHT22;4247;48.550;8.822;2022-07-06T11:37:11;23.10;88.10
8420;DHT22;4247;48.550;8.822;2022-07-06T11:39:39;23.20;88.70
8420;DHT22;4247;48.550;8.822;2022-07-06T11:42:07;23.30;88.60
8420;DHT22;4247;48.550;8.822;2022-07-06T11:44:35;23.50;88.10
8420;DHT22;4247;48.550;8.822;2022-07-06T11:47:05;23.30;88.00
8420;DHT22;4247;48.550;8.822;2022-07-06T11:49:33;23.30;89.00
8420;DHT22;4247;48.550;8.822;2022-07-06T11:52:05;23.20;88.10
8420;DHT22;4247;48.550;8.822;2022-07-06T11:54:32;23.20;88.30
8420;DHT22;4247;48.550;8.822;2022-07-06T11:57:03;23.20;89.20
8420;DHT22;4247;48.550;8.822;2022-07-06T11:59:31;23.20;87.50
8420;DHT22;4247;48.550;8.822;2022-07-06T12:01:59;23.30;89.50
8420;DHT22;4247;48.550;8.822;2022-07-06T12:04:28;23.20;88.50
8420;DHT22;4247;48.550;8.822;2022-07-06T12:06:55;23.20;89.60
8420;DHT22;4247;48.550;8.822;2022-07-06T12:09:30;23.20;88.50
8420;DHT22;4247;48.550;8.822;2022-07-06T12:11:58;23.30;89.20
8420;DHT22;4247;48.550;8.822;2022-07-06T12:14:28;23.30;88.50
8420;DHT22;4247;48.550;8.822;2022-07-06T12:16:55;23.10;88.10
8420;DHT22;4247;48.550;8.822;2022-07-06T12:19:22;23.20;89.30
8420;DHT22;4247;48.550;8.822;2022-07-06T12:21:51;23.30;90.00
8420;DHT22;4247;48.550;8.822;2022-07-06T12:24:20;23.30;90.10
8420;DHT22;4247;48.550;8.822;2022-07-06T12:26:48;23.20;89.60
8420;DHT22;4247;48.550;8.822;2022-07-06T12:29:15;23.10;88.90
8420;DHT22;4247;48.550;8.822;2022-07-06T12:31:44;23.00;89.40
8420;DHT22;4247;48.550;8.822;2022-07-06T12:34:16;23.00;90.10
8420;DHT22;4247;48.550;8.822;2022-07-06T12:36:45;22.80;88.90
8420;DHT22;4247;48.550;8.822;2022-07-06T12:39:15;22.80;90.00
8420;DHT22;4247;48.550;8.822;2022-07-06T12:41:48;22.90;89.50
8420;DHT22;4247;48.550;8.822;2022-07-06T12:44:17;22.90;90.10
8420;DHT22;4247;48.550;8.822;2022-07-06T12:46:45;22.80;89.30
8420;DHT22;4247;48.550;8.822;2022-07-06T12:49:15;22.90;90.10
8420;DHT22;4247;48.550;8.822;2022-07-06T12:51:59;22.90;90.60
8420;DHT22;4247;48.550;8.822;2022-07-06T12:54:30;22.70;89.20
8420;DHT22;4247;48.550;8.822;2022-07-06T12:57:03;22.60;90.20
8420;DHT22;4247;48.550;8.822;2022-07-06T12:59:32;22.40;90.00
8420;DHT22;4247;48.550;8.822;2022-07-06T13:02:00;22.40;90.00
8420;DHT22;4247;48.550;8.822;2022-07-06T13:04:29;22.30;90.20
8420;DHT22;4247;48.550;8.822;2022-07-06T13:06:57;22.20;90.40
8420;DHT22;4247;48.550;8.822;2022-07-06T13:09:24;22.20;90.60
8420;DHT22;4247;48.550;8.822;2022-07-06T13:11:52;22.00;90.30
8420;DHT22;4247;48.550;8.822;2022-07-06T13:14:19;22.10;90.70
8420;DHT22;4247;48.550;8.822;2022-07-06T13:16:47;22.10;90.40
8420;DHT22;4247;48.550;8.822;2022-07-06T13:19:14;22.10;90.20
8420;DHT22;4247;48.550;8.822;2022-07-06T13:21:41;22.30;90.40
8420;DHT22;4247;48.550;8.822;2022-07-06T13:24:10;22.30;89.80
8420;DHT22;4247;48.550;8.822;2022-07-06T13:26:36;22.30;90.20
8420;DHT22;4247;48.550;8.822;2022-07-06T13:29:05;22.40;90.00
8420;DHT22;4247;48.550;8.822;2022-07-06T13:31:32;22.30;89.30
8420;DHT22;4247;48.550;8.822;2022-07-06T13:33:59;22.30;89.40
8420;DHT22;4247;48.550;8.822;2022-07-06T13:36:26;22.30;90.10
8420;DHT22;4247;48.550;8.822;2022-07-06T13:38:52;22.30;88.80
8420;DHT22;4247;48.550;8.822;2022-07-06T13:41:19;22.30;88.70
8420;DHT22;4247;48.550;8.822;2022-07-06T13:43:46;22.30;89.40
8420;DHT22;4247;48.550;8.822;2022-07-06T13:46:15;22.30;87.90
8420;DHT22;4247;48.550;8.822;2022-07-06T13:48:43;22.20;87.10
8420;DHT22;4247;48.550;8.822;2022-07-06T13:51:11;22.10;87.30
8420;DHT22;4247;48.550;8.822;2022-07-06T13:53:38;22.10;88.10
8420;DHT22;4247;48.550;8.822;2022-07-06T13:56:05;22.10;88.50
8420;DHT22;4247;48.550;8.822;2022-07-06T13:58:33;22.10;87.90
8420;DHT22;4247;48.550;8.822;2022-07-06T14:01:00;22.20;88.40
8420;DHT22;4247;48.550;8.822;2022-07-06T14:03:28;22.20;88.90
8420;DHT22;4247;48.550;8.822;2022-07-06T14:05:56;22.10;87.50
8420;DHT22;4247;48.550;8.822;2022-07-06T14:08:24;22.20;88.00
8420;DHT22;4247;48.550;8.822;2022-07-06T14:10:51;22.40;88.70
8420;DHT22;4247;48.550;8.822;2022-07-06T14:13:21;22.40;89.00
8420;DHT22;4247;48.550;8.822;2022-07-06T14:15:49;22.40;87.20
8420;DHT22;4247;48.550;8.822;2022-07-06T14:18:16;22.40;87.40
8420;DHT22;4247;48.550;8.822;2022-07-06T14:20:45;22.40;87.10
8420;DHT22;4247;48.550;8.822;2022-07-06T14:23:13;22.50;87.70
8420;DHT22;4247;48.550;8.822;2022-07-06T14:25:40;22.60;88.00
8420;DHT22;4247;48.550;8.822;2022-07-06T14:28:08;22.50;87.60
8420;DHT22;4247;48.550;8.822;2022-07-06T14:30:36;22.50;88.10
8420;DHT22;4247;48.550;8.822;2022-07-06T14:33:03;22.50;86.50
8420;DHT22;4247;48.550;8.822;2022-07-06T14:35:34;22.60;86.40
8420;DHT22;4247;48.550;8.822;2022-07-06T14:38:03;22.60;89.00
8420;DHT22;4247;48.550;8.822;2022-07-06T14:40:30;22.60;85.80
8420;DHT22;4247;48.550;8.822;2022-07-06T14:42:57;22.60;86.00
8420;DHT22;4247;48.550;8.822;2022-07-06T14:45:24;22.60;86.40
8420;DHT22;4247;48.550;8.822;2022-07-06T14:47:52;22.60;85.60
8420;DHT22;4247;48.550;8.822;2022-07-06T14:50:19;22.60;86.80
8420;DHT22;4247;48.550;8.822;2022-07-06T14:52:48;22.50;85.90
8420;DHT22;4247;48.550;8.822;2022-07-06T14:55:17;22.50;86.70
8420;DHT22;4247;48.550;8.822;2022-07-06T14:57:44;22.50;86.80
8420;DHT22;4247;48.550;8.822;2022-07-06T15:00:12;22.50;86.10
8420;DHT22;4247;48.550;8.822;2022-07-06T15:02:40;22.50;87.40
8420;DHT22;4247;48.550;8.822;2022-07-06T15:05:08;22.50;87.20
8420;DHT22;4247;48.550;8.822;2022-07-06T15:07:36;22.50;87.20
8420;DHT22;4247;48.550;8.822;2022-07-06T15:10:03;22.50;86.60
8420;DHT22;4247;48.550;8.822;2022-07-06T15:12:31;22.50;85.90
8420;DHT22;4247;48.550;8.822;2022-07-06T15:14:59;22.40;85.70
8420;DHT22;4247;48.550;8.822;2022-07-06T15:17:26;22.30;86.90
8420;DHT22;4247;48.550;8.822;2022-07-06T15:19:54;22.30;86.90
8420;DHT22;4247;48.550;8.822;2022-07-06T15:22:21;22.30;85.70
8420;DHT22;4247;48.550;8.822;2022-07-06T15:24:48;22.40;86.30
8420;DHT22;4247;48.550;8.822;2022-07-06T15:27:15;22.40;86.30
8420;DHT22;4247;48.550;8.822;2022-07-06T15:29:43;22.50;85.90
8420;DHT22;4247;48.550;8.822;2022-07-06T15:32:10;22.70;86.30
8420;DHT22;4247;48.550;8.822;2022-07-06T15:34:37;22.70;84.50
8420;DHT22;4247;48.550;8.822;2022-07-06T15:37:04;22.80;85.70
8420;DHT22;4247;48.550;8.822;2022-07-06T15:39:30;22.90;85.60
8420;DHT22;4247;48.550;8.822;2022-07-06T15:41:57;23.00;85.40
8420;DHT22;4247;48.550;8.822;2022-07-06T15:44:25;23.10;84.20
8420;DHT22;4247;48.550;8.822;2022-07-06T15:46:54;23.20;82.90
8420;DHT22;4247;48.550;8.822;2022-07-06T15:49:20;23.20;82.40
8420;DHT22;4247;48.550;8.822;2022-07-06T15:51:47;23.30;83.10
8420;DHT22;4247;48.550;8.822;2022-07-06T15:54:14;23.30;82.20
8420;DHT22;4247;48.550;8.822;2022-07-06T15:56:42;23.30;81.40
8420;DHT22;4247;48.550;8.822;2022-07-06T15:59:09;23.20;79.60
8420;DHT22;4247;48.550;8.822;2022-07-06T16:01:36;23.10;81.30
8420;DHT22;4247;48.550;8.822;2022-07-06T16:04:04;23.00;81.30
8420;DHT22;4247;48.550;8.822;2022-07-06T16:06:31;22.90;81.80
8420;DHT22;4247;48.550;8.822;2022-07-06T16:08:58;22.80;82.20